createdAt,value
2023-05-24T00:00:44.291Z,96.72
2023-05-24T00:01:44.117Z,95.91
2023-05-24T00:02:44.174Z,96.17
2023-05-24T00:03:44.296Z,96.22
2023-05-24T00:04:44.152Z,96.72
2023-05-24T00:05:44.124Z,96.72
2023-05-24T00:06:44.126Z,96.92
2023-05-24T00:07:44.153Z,97.63
2023-05-24T00:08:44.113Z,96.57
2023-05-24T00:09:44.118Z,95.81
2023-05-24T00:10:44.401Z,96.56
2023-05-24T00:11:44.120Z,95.91
2023-05-24T00:12:44.122Z,96.51
2023-05-24T00:13:44.121Z,95.81
2023-05-24T00:14:44.135Z,96.01
2023-05-24T00:15:44.127Z,96.22
2023-05-24T00:16:44.158Z,96.01
2023-05-24T00:17:44.136Z,96.36
2023-05-24T00:18:44.123Z,96.42
2023-05-24T00:19:44.132Z,96.06
2023-05-24T00:20:44.385Z,96.15
2023-05-24T00:21:44.119Z,96.31
2023-05-24T00:22:44.132Z,95.86
2023-05-24T00:23:44.139Z,95.81
2023-05-24T00:24:44.131Z,96.06
2023-05-24T00:25:44.130Z,96.46
2023-05-24T00:26:44.123Z,96.36
2023-05-24T00:27:44.125Z,96.36
2023-05-24T00:28:44.130Z,96.61
2023-05-24T00:29:44.119Z,96.61
2023-05-24T00:30:44.319Z,96.36
2023-05-24T00:31:44.140Z,96.71
2023-05-24T00:32:44.147Z,96.81
2023-05-24T00:33:44.142Z,96.15
2023-05-24T00:34:44.119Z,96.15
2023-05-24T00:35:44.127Z,96.26
2023-05-24T00:36:44.125Z,96.00
2023-05-24T00:37:44.226Z,96.81
2023-05-24T00:38:44.126Z,96.20
2023-05-24T00:39:44.152Z,96.81
2023-05-24T00:40:44.298Z,96.77
2023-05-24T00:41:44.124Z,96.91
2023-05-24T00:42:44.125Z,96.30
2023-05-24T00:43:44.122Z,96.41
2023-05-24T00:44:44.452Z,96.51
2023-05-24T00:45:44.255Z,96.51
2023-05-24T00:46:44.192Z,96.61
2023-05-24T00:47:44.166Z,96.51
2023-05-24T00:48:44.153Z,96.06
2023-05-24T00:49:44.126Z,96.36
2023-05-24T00:50:44.285Z,96.06
2023-05-24T00:51:44.448Z,96.15
2023-05-24T00:52:44.124Z,96.26
2023-05-24T00:53:44.124Z,96.46
2023-05-24T00:54:44.128Z,95.79
2023-05-24T00:55:44.145Z,95.79
2023-05-24T00:56:44.124Z,96.10
2023-05-24T00:57:44.122Z,96.41
2023-05-24T00:58:44.144Z,96.15
2023-05-24T00:59:44.124Z,96.30
2023-05-24T01:00:44.128Z,96.61
2023-05-24T01:01:44.235Z,96.10
2023-05-24T01:02:44.252Z,95.65
2023-05-24T01:03:44.563Z,95.79
2023-05-24T01:04:44.141Z,96.20
2023-05-24T01:05:44.127Z,96.25
2023-05-24T01:06:44.139Z,96.86
2023-05-24T01:07:44.126Z,95.90
2023-05-24T01:08:44.136Z,96.25
2023-05-24T01:09:44.128Z,96.51
2023-05-24T01:10:44.673Z,96.75
2023-05-24T01:11:44.158Z,96.70
2023-05-24T01:12:44.138Z,96.25
2023-05-24T01:13:44.129Z,96.35
2023-05-24T01:14:44.137Z,96.45
2023-05-24T01:15:44.153Z,96.80
2023-05-24T01:16:44.141Z,96.80
2023-05-24T01:17:44.142Z,97.00
2023-05-24T01:18:44.455Z,96.80
2023-05-24T01:19:44.129Z,97.11
2023-05-24T01:20:44.524Z,96.90
2023-05-24T01:21:44.129Z,97.11
2023-05-24T01:22:44.139Z,97.00
2023-05-24T01:23:44.129Z,96.90
2023-05-24T01:24:44.142Z,96.39
2023-05-24T01:25:44.130Z,96.90
2023-05-24T01:26:44.127Z,97.15
2023-05-24T01:27:44.156Z,96.90
2023-05-24T01:28:44.132Z,96.95
2023-05-24T01:29:44.133Z,97.56
2023-05-24T01:30:44.281Z,97.56
2023-05-24T01:31:44.154Z,97.86
2023-05-24T01:32:44.209Z,97.56
2023-05-24T01:33:44.132Z,97.86
2023-05-24T01:34:44.439Z,97.45
2023-05-24T01:35:44.134Z,97.45
2023-05-24T01:36:44.140Z,98.01
2023-05-24T01:37:44.127Z,98.01
2023-05-24T01:38:44.134Z,97.50
2023-05-24T01:39:44.229Z,98.32
2023-05-24T01:40:44.695Z,98.41
2023-05-24T01:41:44.128Z,98.21
2023-05-24T01:42:44.140Z,98.56
2023-05-24T01:43:44.454Z,98.26
2023-05-24T01:44:44.139Z,98.16
2023-05-24T01:45:44.144Z,98.41
2023-05-24T01:46:44.152Z,98.36
2023-05-24T01:47:44.212Z,98.21
2023-05-24T01:52:00.238Z,98.26
2023-05-24T01:53:00.075Z,98.56
2023-05-24T01:54:00.075Z,98.26
2023-05-24T01:55:00.067Z,98.82
2023-05-24T01:56:00.104Z,98.62
2023-05-24T01:57:00.072Z,98.16
2023-05-24T01:58:00.084Z,98.72
2023-05-24T01:59:00.113Z,98.36
2023-05-24T02:00:00.066Z,98.52
2023-05-24T02:01:00.123Z,98.36
2023-05-24T02:02:00.145Z,98.56
2023-05-24T02:03:00.162Z,98.56
2023-05-24T02:04:00.064Z,98.16
2023-05-24T02:05:00.100Z,98.36
2023-05-24T02:06:00.071Z,98.46
2023-05-24T02:07:00.064Z,98.36
2023-05-24T02:08:00.065Z,98.36
2023-05-24T02:09:00.073Z,98.46
2023-05-24T02:10:00.092Z,98.66
2023-05-24T02:11:00.079Z,98.36
2023-05-24T02:12:00.094Z,98.46
2023-05-24T02:13:00.119Z,98.36
2023-05-24T02:14:00.066Z,98.52
2023-05-24T02:15:00.153Z,98.32
2023-05-24T02:16:00.075Z,98.82
2023-05-24T02:17:00.100Z,98.62
2023-05-24T02:18:00.076Z,98.32
2023-05-24T02:19:00.068Z,98.27
2023-05-24T02:20:00.115Z,97.76
2023-05-24T02:21:00.068Z,97.61
2023-05-24T02:22:00.068Z,97.56
2023-05-24T02:23:00.221Z,98.32
2023-05-24T02:24:00.061Z,97.92
2023-05-24T02:25:00.097Z,97.92
2023-05-24T02:26:00.068Z,97.11
2023-05-24T02:27:00.094Z,97.56
2023-05-24T02:28:00.087Z,97.71
2023-05-24T02:29:00.062Z,97.61
2023-05-24T02:30:00.067Z,97.11
2023-05-24T02:31:00.157Z,97.00
2023-05-24T02:32:00.059Z,97.20
2023-05-24T02:33:00.137Z,96.60
2023-05-24T02:34:00.065Z,96.90
2023-05-24T02:35:00.090Z,96.75
2023-05-24T02:36:00.092Z,96.45
2023-05-24T02:37:00.071Z,96.45
2023-05-24T02:38:00.061Z,96.75
2023-05-24T02:39:00.061Z,96.35
2023-05-24T02:40:00.060Z,95.84
2023-05-24T02:41:00.065Z,96.20
2023-05-24T02:42:00.157Z,96.25
2023-05-24T02:43:00.081Z,96.00
2023-05-24T02:44:00.097Z,95.94
2023-05-24T02:45:00.068Z,95.90
2023-05-24T02:46:00.107Z,95.70
2023-05-24T02:47:00.133Z,96.00
2023-05-24T02:48:00.194Z,95.90
2023-05-24T02:49:00.074Z,95.75
2023-05-24T02:50:00.071Z,95.95
2023-05-24T02:51:00.067Z,95.79
2023-05-24T02:52:00.066Z,96.00
2023-05-24T02:53:00.077Z,95.39
2023-05-24T02:54:00.060Z,95.50
2023-05-24T02:55:00.063Z,96.41
2023-05-24T02:56:00.060Z,95.59
2023-05-24T02:57:00.065Z,95.79
2023-05-24T02:58:03.492Z,95.35
2023-05-24T02:59:00.062Z,95.75
2023-05-24T03:00:00.070Z,96.10
2023-05-24T03:01:00.060Z,95.55
2023-05-24T03:02:00.253Z,95.45
2023-05-24T03:03:00.197Z,95.65
2023-05-24T03:04:00.187Z,95.45
2023-05-24T03:05:00.065Z,95.65
2023-05-24T03:06:00.056Z,95.86
2023-05-24T03:07:00.056Z,96.87
2023-05-24T03:08:00.055Z,95.75
2023-05-24T03:09:00.058Z,95.95
2023-05-24T03:10:00.079Z,95.75
2023-05-24T03:11:42.595Z,96.06
2023-05-24T03:12:42.607Z,95.90
2023-05-24T03:13:42.595Z,95.86
2023-05-24T03:14:42.600Z,95.86
2023-05-24T03:15:42.602Z,95.75
2023-05-24T03:16:42.711Z,95.86
2023-05-24T03:17:42.664Z,95.65
2023-05-24T03:18:42.625Z,95.95
2023-05-24T03:19:42.604Z,96.22
2023-05-24T03:20:42.865Z,95.71
2023-05-24T03:21:42.600Z,95.61
2023-05-24T03:22:42.608Z,95.61
2023-05-24T03:23:42.602Z,95.20
2023-05-24T03:24:42.602Z,95.20
2023-05-24T03:25:42.599Z,95.50
2023-05-24T03:26:42.602Z,95.65
2023-05-24T03:27:42.603Z,96.06
2023-05-24T03:28:42.612Z,95.81
2023-05-24T03:29:42.615Z,95.91
2023-05-24T03:30:42.965Z,95.75
2023-05-24T03:31:42.657Z,95.95
2023-05-24T03:32:42.647Z,96.11
2023-05-24T03:33:42.607Z,95.71
2023-05-24T03:34:42.623Z,96.26
2023-05-24T03:35:42.610Z,96.31
2023-05-24T03:36:42.604Z,95.75
2023-05-24T03:37:42.611Z,96.46
2023-05-24T03:38:42.608Z,96.36
2023-05-24T03:39:42.598Z,96.51
2023-05-24T03:40:42.780Z,96.46
2023-05-24T03:41:42.603Z,96.36
2023-05-24T03:42:42.632Z,96.31
2023-05-24T03:43:42.601Z,96.42
2023-05-24T03:44:42.601Z,96.31
2023-05-24T03:45:42.654Z,96.31
2023-05-24T03:46:42.660Z,96.22
2023-05-24T03:47:42.675Z,96.46
2023-05-24T03:48:42.605Z,96.36
2023-05-24T03:49:42.603Z,96.26
2023-05-24T03:50:42.879Z,96.97
2023-05-24T03:51:42.601Z,96.36
2023-05-24T03:52:42.612Z,96.22
2023-05-24T03:53:42.601Z,96.46
2023-05-24T03:54:42.609Z,96.46
2023-05-24T03:55:42.612Z,96.56
2023-05-24T03:56:42.603Z,96.87
2023-05-24T03:57:42.600Z,96.77
2023-05-24T03:58:42.611Z,96.97
2023-05-24T03:59:42.598Z,97.38
2023-05-24T04:00:42.830Z,97.07
2023-05-24T04:01:42.604Z,97.27
2023-05-24T04:02:42.839Z,97.38
2023-05-24T04:03:42.670Z,96.97
2023-05-24T04:04:42.599Z,96.72
2023-05-24T04:05:42.604Z,97.17
2023-05-24T04:06:42.620Z,97.47
2023-05-24T04:07:42.597Z,97.67
2023-05-24T04:08:42.601Z,97.38
2023-05-24T04:09:42.598Z,97.07
2023-05-24T04:10:42.854Z,96.82
2023-05-24T04:11:42.601Z,97.02
2023-05-24T04:12:42.601Z,96.62
2023-05-24T04:13:42.594Z,96.82
2023-05-24T04:14:42.598Z,96.51
2023-05-24T04:15:42.595Z,97.63
2023-05-24T04:16:42.629Z,97.08
2023-05-24T04:17:42.799Z,96.57
2023-05-24T04:18:42.688Z,96.88
2023-05-24T04:19:42.598Z,96.88
2023-05-24T04:20:42.750Z,96.78
2023-05-24T04:21:42.600Z,96.57
2023-05-24T04:22:42.716Z,97.28
2023-05-24T04:23:42.598Z,96.78
2023-05-24T04:24:42.629Z,96.88
2023-05-24T04:25:42.596Z,96.78
2023-05-24T04:26:42.599Z,96.27
2023-05-24T04:27:42.607Z,96.02
2023-05-24T04:28:42.607Z,97.03
2023-05-24T04:29:42.596Z,96.02
2023-05-24T04:30:42.791Z,96.12
2023-05-24T04:31:42.731Z,96.22
2023-05-24T04:32:42.628Z,95.51
2023-05-24T04:33:42.599Z,95.92
2023-05-24T04:34:42.600Z,95.56
2023-05-24T04:35:42.600Z,95.56
2023-05-24T04:36:42.604Z,96.37
2023-05-24T04:37:42.615Z,96.27
2023-05-24T04:38:42.653Z,96.07
2023-05-24T04:39:42.602Z,96.37
2023-05-24T04:40:42.851Z,95.56
2023-05-24T04:41:42.597Z,95.97
2023-05-24T04:42:42.605Z,95.86
2023-05-24T04:43:42.598Z,95.66
2023-05-24T04:44:42.600Z,95.76
2023-05-24T04:45:42.608Z,95.15
2023-05-24T04:46:42.643Z,95.86
2023-05-24T04:47:42.684Z,95.56
2023-05-24T04:48:42.609Z,95.30
2023-05-24T04:49:42.598Z,95.36
2023-05-24T04:50:42.958Z,95.36
2023-05-24T04:51:42.606Z,95.06
2023-05-24T04:52:42.605Z,95.26
2023-05-24T04:53:42.604Z,95.36
2023-05-24T04:54:42.624Z,95.46
2023-05-24T04:55:42.603Z,95.26
2023-05-24T04:56:42.610Z,95.11
2023-05-24T04:57:42.604Z,95.01
2023-05-24T04:58:42.624Z,94.20
2023-05-24T04:59:42.609Z,93.84
2023-05-24T05:00:42.786Z,94.65
2023-05-24T05:01:42.624Z,95.01
2023-05-24T05:02:42.624Z,95.21
2023-05-24T05:03:42.694Z,95.17
2023-05-24T05:04:42.636Z,94.96
2023-05-24T05:05:42.602Z,94.15
2023-05-24T05:06:42.610Z,94.06
2023-05-24T05:07:42.602Z,93.35
2023-05-24T05:08:42.611Z,93.75
2023-05-24T05:09:42.598Z,93.49
2023-05-24T05:10:42.961Z,93.65
2023-05-24T05:11:42.610Z,94.15
2023-05-24T05:12:42.602Z,93.95
2023-05-24T05:13:42.598Z,95.02
2023-05-24T05:14:42.606Z,94.92
2023-05-24T05:15:42.952Z,93.60
2023-05-24T05:16:42.628Z,93.51
2023-05-24T05:17:42.672Z,93.24
2023-05-24T05:18:42.615Z,93.24
2023-05-24T05:19:42.600Z,93.75
2023-05-24T05:20:42.873Z,93.20
2023-05-24T05:21:42.605Z,93.20
2023-05-24T05:22:42.601Z,93.10
2023-05-24T05:23:42.604Z,93.20
2023-05-24T05:24:42.615Z,93.15
2023-05-24T05:25:42.604Z,93.10
2023-05-24T05:26:42.643Z,93.00
2023-05-24T05:27:42.609Z,92.60
2023-05-24T05:28:42.613Z,92.09
2023-05-24T05:29:42.600Z,92.80
2023-05-24T05:30:42.827Z,93.36
2023-05-24T05:31:42.604Z,92.25
2023-05-24T05:32:42.687Z,92.55
2023-05-24T05:33:42.637Z,92.29
2023-05-24T05:34:42.610Z,92.25
2023-05-24T05:35:42.605Z,91.85
2023-05-24T05:36:42.626Z,92.05
2023-05-24T05:37:42.605Z,91.94
2023-05-24T05:38:42.617Z,91.99
2023-05-24T05:39:42.612Z,92.19
2023-05-24T05:40:42.944Z,92.35
2023-05-24T05:41:44.720Z,92.25
2023-05-24T05:42:42.645Z,91.78
2023-05-24T05:43:42.610Z,92.14
2023-05-24T05:44:42.612Z,91.94
2023-05-24T05:45:42.624Z,91.94
2023-05-24T05:46:42.618Z,91.94
2023-05-24T05:47:42.635Z,92.05
2023-05-24T05:48:44.216Z,91.90
2023-05-24T05:49:42.610Z,92.25
2023-05-24T05:50:42.877Z,91.24
2023-05-24T05:51:42.618Z,91.60
2023-05-24T05:52:42.616Z,92.05
2023-05-24T05:53:42.619Z,92.29
2023-05-24T05:54:42.639Z,92.85
2023-05-24T05:55:42.617Z,92.45
2023-05-24T05:56:42.626Z,92.19
2023-05-24T05:57:42.616Z,92.65
2023-05-24T05:58:42.638Z,92.09
2023-05-24T05:59:42.611Z,92.25
2023-05-24T06:00:42.917Z,91.99
2023-05-24T06:01:42.620Z,91.94
2023-05-24T06:02:42.703Z,92.45
2023-05-24T06:03:42.726Z,92.24
2023-05-24T06:04:42.655Z,93.00
2023-05-24T06:05:42.624Z,92.49
2023-05-24T06:06:42.615Z,92.40
2023-05-24T06:07:42.619Z,92.19
2023-05-24T06:08:42.637Z,92.25
2023-05-24T06:09:42.627Z,91.74
2023-05-24T06:10:42.875Z,92.65
2023-05-24T06:11:42.617Z,91.85
2023-05-24T06:12:42.618Z,91.85
2023-05-24T06:13:42.625Z,91.94
2023-05-24T06:14:43.095Z,91.74
2023-05-24T06:15:42.668Z,91.64
2023-05-24T06:16:42.641Z,91.70
2023-05-24T06:17:42.652Z,91.90
2023-05-24T06:18:50.158Z,91.25
2023-05-24T06:19:42.619Z,91.51
2023-05-24T06:20:42.919Z,90.95
2023-05-24T06:21:42.625Z,90.70
2023-05-24T06:22:42.631Z,91.11
2023-05-24T06:23:42.621Z,92.02
2023-05-24T06:24:42.623Z,90.95
2023-05-24T06:25:42.621Z,89.94
2023-05-24T06:26:42.628Z,90.55
2023-05-24T06:27:42.632Z,90.50
2023-05-24T06:28:42.628Z,91.21
2023-05-24T06:29:42.665Z,90.50
2023-05-24T06:30:43.060Z,91.47
2023-05-24T06:31:42.693Z,90.56
2023-05-24T06:32:42.679Z,90.46
2023-05-24T06:33:46.855Z,89.86
2023-05-24T06:34:42.626Z,89.95
2023-05-24T06:35:42.627Z,90.06
2023-05-24T06:36:42.655Z,89.70
2023-05-24T06:37:42.635Z,89.59
2023-05-24T06:38:42.628Z,90.10
2023-05-24T06:39:42.627Z,89.79
2023-05-24T06:40:42.833Z,90.46
2023-05-24T06:41:42.630Z,89.61
2023-05-24T06:42:42.639Z,89.21
2023-05-24T06:43:42.631Z,89.71
2023-05-24T06:44:42.638Z,89.06
2023-05-24T06:45:42.632Z,89.37
2023-05-24T06:46:42.786Z,89.26
2023-05-24T06:47:42.719Z,88.46
2023-05-24T06:48:42.724Z,88.06
2023-05-24T06:49:42.634Z,88.76
2023-05-24T06:50:42.999Z,88.66
2023-05-24T06:51:42.637Z,89.87
2023-05-24T06:52:42.642Z,89.32
2023-05-24T06:53:42.647Z,89.12
2023-05-24T06:54:42.641Z,87.82
2023-05-24T06:55:42.651Z,87.31
2023-05-24T06:56:42.646Z,87.71
2023-05-24T06:57:42.643Z,87.45
2023-05-24T06:58:42.647Z,87.65
2023-05-24T06:59:42.645Z,88.32
2023-05-24T07:00:42.927Z,87.71
2023-05-24T07:01:42.688Z,86.91
2023-05-24T07:02:42.707Z,86.95
2023-05-24T07:03:42.700Z,88.56
2023-05-24T07:04:42.686Z,87.35
2023-05-24T07:05:42.656Z,87.01
2023-05-24T07:06:42.656Z,86.89
2023-05-24T07:07:42.661Z,88.42
2023-05-24T07:08:42.668Z,87.76
2023-05-24T07:09:42.693Z,87.65
2023-05-24T07:10:42.850Z,87.65
2023-05-24T07:11:42.693Z,87.92
2023-05-24T07:12:42.660Z,88.12
2023-05-24T07:13:42.651Z,87.85
2023-05-24T07:14:42.654Z,87.92
2023-05-24T07:15:42.662Z,87.51
2023-05-24T07:16:42.691Z,87.51
2023-05-24T07:17:42.677Z,86.66
2023-05-24T07:18:42.749Z,86.26
2023-05-24T07:19:42.655Z,86.36
2023-05-24T07:20:42.913Z,86.93
2023-05-24T07:21:42.666Z,86.52
2023-05-24T07:22:42.667Z,85.28
2023-05-24T07:23:42.667Z,85.68
2023-05-24T07:24:42.666Z,86.14
2023-05-24T07:25:42.660Z,85.70
2023-05-24T07:26:42.658Z,86.50
2023-05-24T07:27:42.680Z,84.80
2023-05-24T07:28:42.669Z,84.29
2023-05-24T07:29:42.678Z,84.69
2023-05-24T07:30:42.675Z,85.39
2023-05-24T07:31:42.742Z,84.19
2023-05-24T07:32:42.779Z,85.60
2023-05-24T07:33:42.684Z,84.69
2023-05-24T07:34:42.760Z,85.44
2023-05-24T07:35:42.677Z,84.13
2023-05-24T07:36:42.673Z,85.84
2023-05-24T07:37:42.679Z,84.80
2023-05-24T07:38:42.678Z,85.16
2023-05-24T07:39:42.679Z,84.15
2023-05-24T07:40:43.052Z,83.95
2023-05-24T07:41:42.681Z,84.25
2023-05-24T07:42:42.682Z,84.81
2023-05-24T07:43:42.680Z,84.81
2023-05-24T07:44:42.700Z,84.67
2023-05-24T07:45:42.943Z,83.27
2023-05-24T07:46:42.763Z,83.01
2023-05-24T07:47:42.702Z,83.51
2023-05-24T07:48:42.693Z,83.51
2023-05-24T07:49:42.700Z,83.81
2023-05-24T07:50:42.937Z,83.67
2023-05-24T07:51:42.696Z,82.32
2023-05-24T07:52:42.695Z,84.05
2023-05-24T07:53:42.706Z,80.57
2023-05-24T07:54:42.709Z,79.97
2023-05-24T07:55:42.927Z,80.36
2023-05-24T07:56:42.696Z,79.77
2023-05-24T07:57:42.732Z,79.67
2023-05-24T07:58:42.704Z,79.13
2023-05-24T07:59:42.702Z,78.99
2023-05-24T08:00:42.706Z,77.95
2023-05-24T08:01:42.716Z,78.49
2023-05-24T08:02:42.823Z,78.69
2023-05-24T08:03:42.910Z,79.06
2023-05-24T08:04:42.714Z,79.36
2023-05-24T08:05:42.946Z,79.21
2023-05-24T08:06:42.788Z,79.64
2023-05-24T08:07:42.765Z,79.88
2023-05-24T08:08:42.756Z,80.88
2023-05-24T08:09:42.728Z,80.98
2023-05-24T08:10:42.738Z,81.12
2023-05-24T08:11:42.735Z,80.76
2023-05-24T08:12:42.729Z,81.67
2023-05-24T08:13:42.731Z,81.16
2023-05-24T08:14:42.732Z,81.96
2023-05-24T08:15:43.023Z,82.43
2023-05-24T08:16:42.815Z,82.09
2023-05-24T08:17:42.769Z,82.09
2023-05-24T08:18:42.739Z,82.99
2023-05-24T08:19:42.739Z,82.49
2023-05-24T08:20:42.810Z,82.09
2023-05-24T08:21:42.745Z,82.39
2023-05-24T08:22:43.196Z,82.32
2023-05-24T08:23:42.749Z,82.37
2023-05-24T08:24:42.743Z,82.40
2023-05-24T08:25:42.983Z,83.21
2023-05-24T08:26:42.755Z,82.31
2023-05-24T08:27:42.769Z,83.25
2023-05-24T08:28:42.759Z,83.45
2023-05-24T08:29:42.765Z,83.35
2023-05-24T08:30:42.758Z,82.38
2023-05-24T08:31:42.791Z,83.53
2023-05-24T08:32:42.802Z,84.19
2023-05-24T08:33:42.775Z,83.79
2023-05-24T08:34:42.772Z,83.89
2023-05-24T08:35:42.959Z,84.09
2023-05-24T08:36:42.774Z,85.60
2023-05-24T08:38:42.801Z,84.69
2023-05-24T08:39:42.777Z,84.19
2023-05-24T08:40:42.780Z,84.09
2023-05-24T08:41:43.017Z,84.13
2023-05-24T08:42:42.885Z,84.69
2023-05-24T08:43:42.791Z,84.59
2023-05-24T08:44:42.792Z,84.09
2023-05-24T08:45:43.100Z,83.45
2023-05-24T08:46:42.844Z,83.31
2023-05-24T08:47:42.968Z,83.25
2023-05-24T08:48:42.871Z,83.04
2023-05-24T08:49:42.788Z,82.52
2023-05-24T08:50:42.795Z,84.13
2023-05-24T08:51:42.801Z,85.53
2023-05-24T08:52:42.800Z,85.58
2023-05-24T08:53:42.801Z,84.17
2023-05-24T08:54:42.841Z,85.02
2023-05-24T08:55:43.185Z,86.02
2023-05-24T08:56:42.813Z,85.31
2023-05-24T08:57:42.811Z,85.52
2023-05-24T08:58:42.808Z,85.28
2023-05-24T08:59:42.822Z,85.72
2023-05-24T09:00:42.817Z,85.48
2023-05-24T09:01:42.850Z,85.31
2023-05-24T09:02:42.891Z,85.82
2023-05-24T09:03:42.862Z,85.62
2023-05-24T09:04:42.820Z,85.52
2023-05-24T09:05:43.112Z,85.02
2023-05-24T09:06:42.826Z,85.76
2023-05-24T09:07:42.822Z,85.25
2023-05-24T09:08:43.974Z,85.22
2023-05-24T09:09:42.835Z,85.62
2023-05-24T09:10:53.844Z,85.38
2023-05-24T09:11:42.829Z,85.38
2023-05-24T09:12:42.834Z,85.78
2023-05-24T09:13:42.830Z,85.58
2023-05-24T09:14:42.840Z,84.91
2023-05-24T09:15:43.204Z,85.88
2023-05-24T09:16:42.872Z,85.17
2023-05-24T09:17:42.912Z,85.68
2023-05-24T09:18:42.843Z,85.58
2023-05-24T09:19:42.844Z,85.98
2023-05-24T09:20:43.076Z,85.58
2023-05-24T09:21:42.844Z,85.44
2023-05-24T09:22:43.027Z,85.03
2023-05-24T09:23:42.850Z,85.50
2023-05-24T09:24:42.853Z,84.99
2023-05-24T09:25:42.859Z,84.94
2023-05-24T09:26:42.867Z,85.53
2023-05-24T09:27:42.847Z,85.53
2023-05-24T09:28:42.855Z,84.94
2023-05-24T09:29:42.852Z,85.94
2023-05-24T09:30:43.076Z,85.60
2023-05-24T09:31:42.870Z,85.60
2023-05-24T09:32:42.888Z,85.30
2023-05-24T09:33:42.861Z,84.53
2023-05-24T09:34:42.863Z,85.60
2023-05-24T09:35:42.854Z,84.74
2023-05-24T09:36:42.868Z,84.09
2023-05-24T09:37:42.867Z,83.59
2023-05-24T09:38:42.880Z,83.93
2023-05-24T09:39:42.857Z,84.09
2023-05-24T09:40:42.979Z,84.23
2023-05-24T09:41:42.869Z,85.53
2023-05-24T09:42:42.885Z,84.77
2023-05-24T09:43:42.865Z,84.77
2023-05-24T09:44:42.874Z,84.88
2023-05-24T09:45:42.905Z,85.72
2023-05-24T09:46:42.943Z,85.72
2023-05-24T09:47:42.947Z,85.82
2023-05-24T09:48:42.878Z,85.28
2023-05-24T09:49:42.869Z,84.88
2023-05-24T09:50:43.158Z,85.88
2023-05-24T09:51:43.054Z,85.28
2023-05-24T09:52:42.909Z,85.48
2023-05-24T09:53:42.876Z,85.58
2023-05-24T09:54:42.885Z,85.68
2023-05-24T09:55:42.878Z,84.17
2023-05-24T09:56:42.911Z,84.88
2023-05-24T09:57:42.886Z,86.04
2023-05-24T09:58:42.932Z,85.60
2023-05-24T09:59:42.895Z,85.39
2023-05-24T10:00:43.609Z,84.55
2023-05-24T10:01:42.970Z,83.85
2023-05-24T10:02:52.313Z,83.89
2023-05-24T10:03:42.901Z,83.15
2023-05-24T10:04:42.943Z,83.65
2023-05-24T10:05:42.926Z,82.54
2023-05-24T10:06:42.911Z,83.45
2023-05-24T10:07:42.900Z,83.61
2023-05-24T10:08:42.905Z,82.31
2023-05-24T10:09:42.905Z,81.96
2023-05-24T10:10:43.116Z,82.23
2023-05-24T10:11:42.915Z,82.32
2023-05-24T10:12:42.920Z,82.29
2023-05-24T10:13:42.905Z,81.04
2023-05-24T10:14:42.939Z,80.38
2023-05-24T10:15:42.908Z,80.68
2023-05-24T10:16:42.982Z,81.45
2023-05-24T10:17:42.990Z,80.91
2023-05-24T10:18:42.920Z,79.94
2023-05-24T10:19:42.920Z,80.44
2023-05-24T10:20:43.356Z,80.61
2023-05-24T10:21:42.930Z,79.71
2023-05-24T10:22:42.931Z,80.21
2023-05-24T10:23:42.918Z,81.71
2023-05-24T10:24:42.920Z,79.10
2023-05-24T10:25:42.934Z,79.94
2023-05-24T10:26:42.947Z,81.30
2023-05-24T10:27:42.924Z,81.37
2023-05-24T10:28:42.977Z,79.41
2023-05-24T10:29:42.931Z,79.64
2023-05-24T10:30:43.403Z,79.85
2023-05-24T10:31:43.030Z,79.78
2023-05-24T10:32:43.047Z,80.28
2023-05-24T10:33:42.949Z,79.98
2023-05-24T10:34:42.954Z,80.48
2023-05-24T10:35:42.948Z,80.24
2023-05-24T10:36:42.949Z,79.34
2023-05-24T10:37:42.957Z,79.00
2023-05-24T10:38:42.951Z,79.44
2023-05-24T10:39:42.942Z,78.60
2023-05-24T10:40:42.985Z,79.17
2023-05-24T10:41:42.954Z,78.86
2023-05-24T10:42:42.967Z,78.67
2023-05-24T10:43:43.086Z,78.43
2023-05-24T10:44:42.956Z,78.09
2023-05-24T10:45:42.958Z,77.75
2023-05-24T10:46:43.038Z,76.59
2023-05-24T10:47:42.980Z,77.19
2023-05-24T10:48:42.978Z,77.89
2023-05-24T10:49:42.970Z,77.73
2023-05-24T10:50:43.216Z,78.29
2023-05-24T10:51:42.971Z,77.59
2023-05-24T10:52:42.977Z,77.18
2023-05-24T10:53:42.973Z,76.21
2023-05-24T10:54:52.668Z,75.94
2023-05-24T10:55:42.979Z,74.08
2023-05-24T10:56:42.987Z,75.24
2023-05-24T10:57:43.001Z,74.54
2023-05-24T10:58:42.993Z,73.87
2023-05-24T10:59:42.990Z,72.64
2023-05-24T11:00:43.027Z,73.03
2023-05-24T11:01:43.046Z,72.33
2023-05-24T11:02:43.197Z,73.58
2023-05-24T11:03:43.014Z,71.00
2023-05-24T11:04:43.044Z,68.04
2023-05-24T11:05:45.024Z,66.69
2023-05-24T11:06:43.024Z,66.06
2023-05-24T11:07:43.100Z,67.41
2023-05-24T11:08:43.040Z,69.13
2023-05-24T11:09:43.041Z,68.24
2023-05-24T11:10:43.268Z,69.36
2023-05-24T11:11:43.049Z,69.92
2023-05-24T11:12:43.067Z,69.32
2023-05-24T11:13:43.075Z,70.98
2023-05-24T11:14:43.077Z,71.72
2023-05-24T11:15:43.078Z,72.08
2023-05-24T11:16:43.173Z,72.68
2023-05-24T11:17:43.674Z,72.95
2023-05-24T11:18:43.138Z,72.72
2023-05-24T11:19:43.098Z,73.02
2023-05-24T11:20:43.370Z,74.35
2023-05-24T11:21:43.220Z,76.91
2023-05-24T11:22:43.116Z,76.87
2023-05-24T11:23:43.119Z,74.74
2023-05-24T11:24:43.128Z,73.04
2023-05-24T11:25:43.136Z,72.97
2023-05-24T11:26:43.141Z,70.02
2023-05-24T11:27:43.142Z,67.71
2023-05-24T11:28:43.268Z,69.53
2023-05-24T11:29:43.156Z,69.36
2023-05-24T11:30:43.438Z,70.35
2023-05-24T11:31:44.705Z,69.56
2023-05-24T11:32:43.230Z,70.19
2023-05-24T11:33:43.181Z,72.58
2023-05-24T11:34:43.219Z,72.47
2023-05-24T11:35:43.197Z,72.67
2023-05-24T11:36:43.206Z,72.97
2023-05-24T11:37:46.673Z,72.87
2023-05-24T11:38:43.232Z,72.58
2023-05-24T11:39:43.218Z,72.20
2023-05-24T11:40:43.475Z,72.31
2023-05-24T11:41:43.281Z,70.45
2023-05-24T11:42:43.244Z,69.53
2023-05-24T11:43:43.232Z,70.12
2023-05-24T11:44:43.264Z,70.92
2023-05-24T11:45:43.329Z,70.02
2023-05-24T11:46:43.257Z,70.22
2023-05-24T11:47:43.301Z,69.65
2023-05-24T11:48:43.262Z,67.28
2023-05-24T11:49:43.274Z,66.36
2023-05-24T11:50:49.255Z,67.54
2023-05-24T11:51:43.359Z,67.54
2023-05-24T11:52:43.295Z,66.52
2023-05-24T11:53:43.301Z,66.95
2023-05-24T11:54:43.327Z,67.14
2023-05-24T11:55:43.418Z,66.82
2023-05-24T11:56:43.330Z,65.17
2023-05-24T11:57:43.336Z,64.81
2023-05-24T11:58:43.338Z,63.65
2023-05-24T11:59:43.348Z,64.61
2023-05-24T12:00:43.594Z,67.51
2023-05-24T12:01:43.478Z,66.03
2023-05-24T12:02:43.456Z,64.95
2023-05-24T12:03:43.463Z,64.55
2023-05-24T12:04:43.572Z,65.61
2023-05-24T12:05:43.409Z,65.08
2023-05-24T12:06:43.450Z,66.39
2023-05-24T12:07:43.420Z,63.50
2023-05-24T12:08:43.423Z,63.90
2023-05-24T12:09:43.436Z,64.78
2023-05-24T12:10:43.717Z,64.51
2023-05-24T12:11:43.511Z,65.17
2023-05-24T12:12:46.225Z,67.28
2023-05-24T12:13:43.481Z,65.33
2023-05-24T12:14:43.487Z,66.98
2023-05-24T12:15:43.559Z,67.11
2023-05-24T12:16:43.502Z,67.54
2023-05-24T12:17:43.555Z,68.66
2023-05-24T12:18:55.086Z,68.53
2023-05-24T12:19:43.534Z,69.36
2023-05-24T12:20:44.040Z,70.36
2023-05-24T12:21:43.557Z,70.65
2023-05-24T12:22:43.572Z,70.39
2023-05-24T12:23:43.561Z,70.29
2023-05-24T12:24:43.567Z,71.48
2023-05-24T12:25:43.588Z,70.68
2023-05-24T12:26:43.588Z,72.74
2023-05-24T12:27:43.599Z,71.01
2023-05-24T12:28:43.604Z,69.85
2023-05-24T12:29:43.615Z,66.85
2023-05-24T12:30:43.923Z,68.86
2023-05-24T12:31:43.676Z,68.53
2023-05-24T12:32:43.658Z,68.83
2023-05-24T12:33:43.641Z,68.33
2023-05-24T12:34:43.888Z,68.53
2023-05-24T12:35:43.653Z,66.49
2023-05-24T12:36:43.656Z,66.32
2023-05-24T12:37:43.668Z,65.37
2023-05-24T12:38:43.710Z,64.58
2023-05-24T12:39:44.489Z,63.63
2023-05-24T12:40:43.973Z,62.26
2023-05-24T12:41:43.705Z,62.59
2023-05-24T12:42:43.699Z,61.67
2023-05-24T12:43:43.729Z,60.23
2023-05-24T12:44:43.718Z,58.60
2023-05-24T12:45:43.736Z,58.99
2023-05-24T12:46:43.791Z,58.92
2023-05-24T12:47:43.791Z,58.95
2023-05-24T12:48:43.775Z,58.71
2023-05-24T12:49:43.759Z,60.16
2023-05-24T12:50:44.134Z,60.30
2023-05-24T12:51:43.777Z,62.14
2023-05-24T12:52:43.798Z,59.26
2023-05-24T12:53:43.794Z,59.72
2023-05-24T12:54:43.831Z,59.05
2023-05-24T12:55:43.809Z,58.82
2023-05-24T12:56:43.818Z,58.47
2023-05-24T12:57:43.832Z,58.22